Time;durP1;ratioP1;P1;durP2;ratioP2;P2;SDS_P1;SDS_P2;PMS_P1;PMS_P2;Temp;Humidity;BMP_temperature;BMP_pressure;BME280_temperature;BME280_humidity;BME280_pressure;Samples;Min_cycle;Max_cycle;Signal;HPM_P1;HPM_P2
2024/04/23 00:03:52;;;;;;;12.40;6.80;;;;;;;4.35;83.01;100922.89;667590;1277;139648;-78
2024/04/23 00:18:55;;;;;;;11.50;7.60;;;;;;;4.46;82.82;100912.12;666362;1265;138471;-79
2024/04/23 00:33:59;;;;;;;17.00;9.50;;;;;;;4.33;82.57;100904.31;667619;1265;138989;-79
2024/04/23 00:49:02;;;;;;;20.40;10.20;;;;;;;4.22;83.38;100894.45;667813;1269;138414;-79
2024/04/23 01:04:05;;;;;;;13.00;9.00;;;;;;;4.12;82.28;100874.16;667172;1276;139337;-79
2024/04/23 01:19:35;;;;;;;11.30;8.10;;;;;;;4.12;81.89;100858.44;666054;1267;139390;-79
2024/04/23 01:34:39;;;;;;;100.70;42.70;;;;;;;4.37;82.40;100868.24;667719;1270;139878;-79
2024/04/23 01:49:43;;;;;;;22.10;9.00;;;;;;;4.54;82.56;100870.44;667158;1266;138029;-80
2024/04/23 02:04:47;;;;;;;18.30;11.10;;;;;;;4.45;83.74;100873.68;668020;1266;138520;-78
2024/04/23 02:19:50;;;;;;;12.90;9.20;;;;;;;4.40;84.70;100867.54;667848;1266;139757;-79
2024/04/23 02:34:54;;;;;;;16.30;8.70;;;;;;;4.37;85.55;100863.38;667877;1267;138890;-80
2024/04/23 02:49:57;;;;;;;21.40;10.60;;;;;;;4.52;84.93;100856.88;667386;1266;139194;-80
2024/04/23 03:05:00;;;;;;;16.40;10.20;;;;;;;4.64;84.77;100848.27;669110;1261;141051;-80
2024/04/23 03:20:05;;;;;;;43.00;20.70;;;;;;;4.62;84.20;100848.52;667623;1260;140766;-80
2024/04/23 03:35:08;;;;;;;28.20;15.20;;;;;;;4.66;84.61;100843.31;670626;1263;139727;-80
2024/04/23 03:50:11;;;;;;;19.90;12.40;;;;;;;4.65;84.43;100839.56;669761;1266;141909;-80
2024/04/23 04:20:36;;;;;;;26.70;15.40;;;;;;;4.49;85.07;100831.23;668596;1264;138751;-79
2024/04/23 04:35:39;;;;;;;26.40;12.90;;;;;;;4.30;84.59;100827.25;669398;1276;140766;-79
2024/04/23 04:50:43;;;;;;;26.60;13.30;;;;;;;4.59;85.36;100832.91;668756;1263;139805;-79
2024/04/23 05:05:46;;;;;;;26.90;13.70;;;;;;;4.52;85.30;100839.39;668217;1266;140218;-80
2024/04/23 05:20:49;;;;;;;19.30;9.70;;;;;;;4.89;85.05;100837.03;667362;1267;139081;-81
2024/04/23 05:35:52;;;;;;;17.20;8.10;;;;;;;7.01;83.52;100842.14;667092;1261;138667;-80
2024/04/23 05:51:33;;;;;;;11.30;4.40;;;;;;;9.87;72.71;100848.08;666299;1267;139001;-80
2024/04/23 06:06:55;;;;;;;37.90;16.40;;;;;;;9.62;65.68;100841.73;667070;1260;138554;-79
2024/04/23 06:21:59;;;;;;;9.50;5.80;;;;;;;12.76;60.51;100843.42;667523;1260;139776;-80
2024/04/23 06:37:02;;;;;;;12.80;6.40;;;;;;;13.12;54.64;100849.43;669383;1267;140023;-80
2024/04/23 06:52:08;;;;;;;13.80;5.10;;;;;;;13.02;51.08;100858.95;668991;1263;139726;-80
2024/04/23 07:07:12;;;;;;;14.90;6.10;;;;;;;12.10;50.04;100860.39;669117;1264;138659;-81
2024/04/23 07:22:15;;;;;;;8.40;3.60;;;;;;;11.03;50.46;100850.61;668201;1264;139781;-79
2024/04/23 07:37:19;;;;;;;13.60;7.00;;;;;;;11.48;50.59;100849.63;667895;1259;138360;-80
2024/04/23 07:52:23;;;;;;;227.10;81.40;;;;;;;11.93;49.72;100852.17;667606;1275;139354;-81
2024/04/23 08:07:26;;;;;;;20.40;9.40;;;;;;;10.33;50.15;100845.27;670002;1263;140062;-80
2024/04/23 08:22:29;;;;;;;8.80;5.20;;;;;;;9.30;52.24;100845.37;676185;1277;138777;-80
2024/04/23 08:37:33;;;;;;;17.90;7.70;;;;;;;8.98;53.66;100849.29;668271;1263;138234;-80
2024/04/23 08:52:37;;;;;;;6.10;4.00;;;;;;;8.30;54.74;100848.44;668524;1259;138108;-80
2024/04/23 09:07:43;;;;;;;35.40;15.30;;;;;;;8.35;55.26;100844.25;668976;1262;138422;-80
2024/04/23 09:22:58;;;;;;;12.50;8.30;;;;;;;8.44;55.65;100831.26;667642;1261;138707;-79
2024/04/23 09:38:04;;;;;;;26.00;12.00;;;;;;;8.75;55.72;100825.67;666783;1263;139126;-79
2024/04/23 09:53:09;;;;;;;12.50;6.30;;;;;;;9.65;55.49;100811.14;666785;1262;138170;-79
2024/04/23 10:08:20;;;;;;;172.20;50.00;;;;;;;10.74;53.23;100789.98;666287;1259;138366;-79
2024/04/23 10:23:24;;;;;;;15.70;7.60;;;;;;;9.59;52.24;100781.77;667458;1262;138813;-80
2024/04/23 10:38:31;;;;;;;100.10;40.80;;;;;;;9.14;52.88;100769.02;667065;1260;138053;-79
2024/04/23 10:53:35;;;;;;;86.80;34.30;;;;;;;8.60;53.90;100772.80;667158;1262;138540;-79
2024/04/23 11:08:49;;;;;;;45.20;19.90;;;;;;;8.73;54.82;100760.34;666979;1262;138581;-78
2024/04/23 11:23:53;;;;;;;33.70;12.80;;;;;;;9.67;54.32;100747.95;667301;1262;168734;-80
2024/04/23 11:39:00;;;;;;;12.80;8.10;;;;;;;10.55;52.78;100730.60;666341;1263;138093;-79
2024/04/23 11:54:05;;;;;;;17.30;6.90;;;;;;;10.97;50.47;100715.67;665149;1259;138408;-79
2024/04/23 12:09:08;;;;;;;9.20;6.40;;;;;;;10.80;49.31;100692.38;665878;1263;137852;-80
2024/04/23 12:24:21;;;;;;;7.50;6.40;;;;;;;10.13;49.30;100680.79;665889;1259;138127;-80
2024/04/23 12:39:27;;;;;;;20.20;11.70;;;;;;;10.29;50.72;100663.85;669203;1264;137553;-86
2024/04/23 12:54:31;;;;;;;8.30;5.90;;;;;;;10.36;50.99;100645.73;670432;1264;139197;-84
2024/04/23 13:09:34;;;;;;;7.10;5.00;;;;;;;10.30;50.99;100634.71;672875;1264;139766;-85
2024/04/23 13:24:38;;;;;;;21.80;11.70;;;;;;;10.28;50.92;100624.41;672134;1264;138161;-83
2024/04/23 13:39:41;;;;;;;14.10;5.80;;;;;;;10.33;50.54;100607.03;673934;1262;138335;-85
2024/04/23 13:54:45;;;;;;;15.30;9.90;;;;;;;10.43;50.37;100605.34;673475;1262;138674;-85
2024/04/23 14:09:49;;;;;;;17.60;9.80;;;;;;;10.33;49.91;100592.70;670699;1275;139960;-80
2024/04/23 14:24:55;;;;;;;12.50;7.20;;;;;;;10.36;49.84;100579.18;673635;1265;139355;-79
2024/04/23 14:39:58;;;;;;;9.60;6.00;;;;;;;10.13;49.11;100565.43;678369;1261;139301;-79
2024/04/23 14:55:03;;;;;;;11.20;6.10;;;;;;;9.80;49.04;100545.45;677894;1262;138066;-79
2024/04/23 15:10:09;;;;;;;21.50;8.10;;;;;;;9.69;48.97;100540.67;676667;1262;138941;-79
2024/04/23 15:25:14;;;;;;;13.50;7.90;;;;;;;9.66;48.59;100527.69;677186;1262;139358;-80
2024/04/23 15:40:17;;;;;;;22.40;11.30;;;;;;;9.86;48.75;100514.84;671285;1260;138436;-79
2024/04/23 15:55:29;;;;;;;13.20;10.80;;;;;;;9.71;49.13;100495.29;672026;1262;138373;-79
2024/04/23 16:10:33;;;;;;;35.00;15.20;;;;;;;9.40;48.88;100487.80;671392;1264;138375;-80
2024/04/23 16:25:36;;;;;;;11.30;7.30;;;;;;;9.32;49.63;100477.97;669642;1257;138443;-80
2024/04/23 16:40:40;;;;;;;330.60;166.90;;;;;;;9.27;49.82;100468.28;669392;1265;138178;-80
2024/04/23 16:55:49;;;;;;;134.20;70.60;;;;;;;9.06;50.90;100463.09;671987;1264;138899;-79
2024/04/23 17:11:02;;;;;;;46.60;27.10;;;;;;;8.81;51.11;100461.76;672617;1263;138399;-79
2024/04/23 17:26:06;;;;;;;37.80;21.20;;;;;;;8.69;51.64;100463.70;671854;1262;139486;-81
2024/04/23 17:41:09;;;;;;;73.00;25.60;;;;;;;8.59;52.85;100466.59;671898;1264;139179;-79
2024/04/23 17:56:14;;;;;;;79.70;35.30;;;;;;;8.36;54.08;100470.71;672375;1276;138565;-81
2024/04/23 18:11:23;;;;;;;60.40;28.60;;;;;;;8.08;55.81;100463.03;674727;1265;139747;-80
2024/04/23 18:26:27;;;;;;;183.00;89.20;;;;;;;7.93;56.64;100446.42;673110;1263;138137;-79
2024/04/23 18:41:30;;;;;;;121.00;55.00;;;;;;;7.76;57.51;100434.26;669707;1263;139818;-79
2024/04/23 18:56:34;;;;;;;70.70;26.20;;;;;;;7.56;57.63;100418.11;671659;1265;138828;-79
2024/04/23 19:11:37;;;;;;;60.90;29.10;;;;;;;7.27;58.09;100396.88;671180;1263;139455;-79
2024/04/23 19:26:41;;;;;;;46.50;22.80;;;;;;;6.70;58.89;100372.59;668146;1273;138735;-77
2024/04/23 19:41:44;;;;;;;72.90;29.20;;;;;;;5.93;59.97;100361.51;665020;1264;137868;-79
2024/04/23 20:11:52;;;;;;;194.30;84.40;;;;;;;4.96;62.36;100333.79;666588;1273;138848;-78
2024/04/23 20:26:55;;;;;;;67.60;27.40;;;;;;;4.82;62.62;100330.84;665693;1263;139284;-79
2024/04/23 20:41:59;;;;;;;102.10;41.30;;;;;;;4.44;63.43;100324.20;667324;1264;139068;-79
2024/04/23 20:57:03;;;;;;;63.00;28.60;;;;;;;4.15;64.52;100324.57;668040;1262;139237;-80
2024/04/23 21:12:07;;;;;;;136.10;50.30;;;;;;;3.83;65.34;100320.23;669329;1275;139819;-79
2024/04/23 21:27:10;;;;;;;69.30;30.50;;;;;;;3.93;66.12;100314.09;668425;1263;140021;-80
2024/04/23 21:42:13;;;;;;;35.20;17.90;;;;;;;4.19;66.21;100310.84;669686;1266;138845;-79
2024/04/23 21:57:33;;;;;;;45.40;23.60;;;;;;;4.45;65.56;100305.23;669034;1263;142460;-79
2024/04/23 22:19:33;;;;;;;62.30;25.70;;;;;;;4.79;65.59;100295.48;649017;1297;545067;-78
2024/04/23 22:34:36;;;;;;;66.10;24.10;;;;;;;4.89;65.93;100291.98;662714;1275;138682;-78
2024/04/23 22:49:39;;;;;;;73.30;28.90;;;;;;;4.97;65.58;100275.34;662108;1275;138695;-79
2024/04/23 23:04:42;;;;;;;38.90;20.50;;;;;;;5.08;65.56;100268.88;660502;1275;138629;-79
2024/04/23 23:19:45;;;;;;;62.00;27.00;;;;;;;5.09;64.88;100248.34;668601;1265;139685;-79
2024/04/23 23:34:48;;;;;;;55.90;23.80;;;;;;;5.11;65.06;100221.54;666176;1263;139328;-80
2024/04/23 23:49:51;;;;;;;37.00;18.50;;;;;;;4.98;64.84;100205.37;668689;1264;139435;-78
